sensor_id;sensor_type;location;lat;lon;timestamp;P1;durP1;ratioP1;P2;durP2;ratioP2
12986;SDS011;58897;51.960;5.582;2024-02-15T00:02:24;12.45;;;6.53;;
12986;SDS011;58897;51.960;5.582;2024-02-15T00:04:51;7.78;;;5.10;;
12986;SDS011;58897;51.960;5.582;2024-02-15T00:07:17;13.32;;;6.57;;
12986;SDS011;58897;51.960;5.582;2024-02-15T00:09:49;9.93;;;5.93;;
12986;SDS011;58897;51.960;5.582;2024-02-15T00:12:15;11.05;;;6.15;;
12986;SDS011;58897;51.960;5.582;2024-02-15T00:14:42;12.85;;;6.13;;
12986;SDS011;58897;51.960;5.582;2024-02-15T00:17:09;11.63;;;5.55;;
12986;SDS011;58897;51.960;5.582;2024-02-15T00:19:36;9.38;;;5.35;;
12986;SDS011;58897;51.960;5.582;2024-02-15T00:22:03;13.95;;;6.78;;
12986;SDS011;58897;51.960;5.582;2024-02-15T00:24:30;13.45;;;6.88;;
12986;SDS011;58897;51.960;5.582;2024-02-15T00:26:58;13.23;;;7.10;;
12986;SDS011;58897;51.960;5.582;2024-02-15T00:29:24;13.85;;;7.30;;
12986;SDS011;58897;51.960;5.582;2024-02-15T00:31:54;11.98;;;6.88;;
12986;SDS011;58897;51.960;5.582;2024-02-15T00:34:21;12.63;;;6.15;;
12986;SDS011;58897;51.960;5.582;2024-02-15T00:36:48;20.05;;;7.25;;
12986;SDS011;58897;51.960;5.582;2024-02-15T00:39:15;13.75;;;7.20;;
12986;SDS011;58897;51.960;5.582;2024-02-15T00:41:44;15.40;;;7.47;;
12986;SDS011;58897;51.960;5.582;2024-02-15T00:44:11;13.70;;;7.80;;
12986;SDS011;58897;51.960;5.582;2024-02-15T00:46:38;23.00;;;8.80;;
12986;SDS011;58897;51.960;5.582;2024-02-15T00:49:04;15.32;;;8.27;;
12986;SDS011;58897;51.960;5.582;2024-02-15T00:51:35;18.20;;;7.82;;
12986;SDS011;58897;51.960;5.582;2024-02-15T00:54:02;19.38;;;9.13;;
12986;SDS011;58897;51.960;5.582;2024-02-15T00:56:29;15.77;;;7.70;;
12986;SDS011;58897;51.960;5.582;2024-02-15T00:59:01;15.93;;;8.65;;
12986;SDS011;58897;51.960;5.582;2024-02-15T01:01:27;15.82;;;8.93;;
12986;SDS011;58897;51.960;5.582;2024-02-15T01:03:54;18.23;;;8.80;;
12986;SDS011;58897;51.960;5.582;2024-02-15T01:06:21;18.00;;;9.15;;
12986;SDS011;58897;51.960;5.582;2024-02-15T01:08:48;18.25;;;9.90;;
12986;SDS011;58897;51.960;5.582;2024-02-15T01:11:15;15.63;;;9.23;;
12986;SDS011;58897;51.960;5.582;2024-02-15T01:13:42;16.65;;;9.50;;
12986;SDS011;58897;51.960;5.582;2024-02-15T01:16:11;14.10;;;7.57;;
12986;SDS011;58897;51.960;5.582;2024-02-15T01:18:37;16.20;;;9.23;;
12986;SDS011;58897;51.960;5.582;2024-02-15T01:21:04;15.05;;;8.63;;
12986;SDS011;58897;51.960;5.582;2024-02-15T01:23:31;14.05;;;7.13;;
12986;SDS011;58897;51.960;5.582;2024-02-15T01:25:58;13.68;;;7.35;;
12986;SDS011;58897;51.960;5.582;2024-02-15T01:28:25;15.30;;;8.02;;
12986;SDS011;58897;51.960;5.582;2024-02-15T01:30:51;12.73;;;8.05;;
12986;SDS011;58897;51.960;5.582;2024-02-15T01:33:18;14.13;;;7.45;;
12986;SDS011;58897;51.960;5.582;2024-02-15T01:35:45;15.60;;;7.63;;
12986;SDS011;58897;51.960;5.582;2024-02-15T01:38:12;12.60;;;5.65;;
12986;SDS011;58897;51.960;5.582;2024-02-15T01:40:39;17.92;;;6.90;;
12986;SDS011;58897;51.960;5.582;2024-02-15T01:43:05;14.25;;;6.97;;
12986;SDS011;58897;51.960;5.582;2024-02-15T01:45:32;10.85;;;5.78;;
12986;SDS011;58897;51.960;5.582;2024-02-15T01:47:59;11.95;;;6.70;;
12986;SDS011;58897;51.960;5.582;2024-02-15T01:50:26;17.38;;;7.50;;
12986;SDS011;58897;51.960;5.582;2024-02-15T01:52:54;13.88;;;7.18;;
12986;SDS011;58897;51.960;5.582;2024-02-15T01:55:23;12.73;;;6.75;;
12986;SDS011;58897;51.960;5.582;2024-02-15T01:57:50;11.90;;;7.28;;
12986;SDS011;58897;51.960;5.582;2024-02-15T02:00:17;15.32;;;7.15;;
12986;SDS011;58897;51.960;5.582;2024-02-15T02:02:45;12.60;;;7.05;;
12986;SDS011;58897;51.960;5.582;2024-02-15T02:05:13;16.83;;;6.47;;
12986;SDS011;58897;51.960;5.582;2024-02-15T02:07:40;12.85;;;6.20;;
12986;SDS011;58897;51.960;5.582;2024-02-15T02:10:07;18.20;;;7.18;;
12986;SDS011;58897;51.960;5.582;2024-02-15T02:12:35;12.80;;;7.07;;
12986;SDS011;58897;51.960;5.582;2024-02-15T02:15:01;9.77;;;5.40;;
12986;SDS011;58897;51.960;5.582;2024-02-15T02:17:28;15.50;;;7.32;;
12986;SDS011;58897;51.960;5.582;2024-02-15T02:19:55;14.35;;;7.00;;
12986;SDS011;58897;51.960;5.582;2024-02-15T02:22:23;11.95;;;6.32;;
12986;SDS011;58897;51.960;5.582;2024-02-15T02:27:22;11.60;;;6.20;;
12986;SDS011;58897;51.960;5.582;2024-02-15T02:29:50;13.55;;;5.57;;
12986;SDS011;58897;51.960;5.582;2024-02-15T02:32:16;13.75;;;6.95;;
12986;SDS011;58897;51.960;5.582;2024-02-15T02:34:43;15.43;;;5.40;;
12986;SDS011;58897;51.960;5.582;2024-02-15T02:37:10;14.77;;;7.05;;
12986;SDS011;58897;51.960;5.582;2024-02-15T02:39:38;14.30;;;6.35;;
12986;SDS011;58897;51.960;5.582;2024-02-15T02:42:05;14.60;;;6.25;;
12986;SDS011;58897;51.960;5.582;2024-02-15T02:44:31;8.70;;;5.25;;
12986;SDS011;58897;51.960;5.582;2024-02-15T02:46:58;11.55;;;6.13;;
12986;SDS011;58897;51.960;5.582;2024-02-15T02:49:24;13.15;;;6.50;;
12986;SDS011;58897;51.960;5.582;2024-02-15T02:51:51;12.18;;;6.50;;
12986;SDS011;58897;51.960;5.582;2024-02-15T02:54:18;10.27;;;5.70;;
12986;SDS011;58897;51.960;5.582;2024-02-15T02:56:44;10.45;;;5.95;;
12986;SDS011;58897;51.960;5.582;2024-02-15T02:59:11;11.23;;;5.97;;
12986;SDS011;58897;51.960;5.582;2024-02-15T03:01:39;9.30;;;4.72;;
12986;SDS011;58897;51.960;5.582;2024-02-15T03:04:06;13.77;;;5.80;;
12986;SDS011;58897;51.960;5.582;2024-02-15T03:06:32;19.48;;;6.68;;
12986;SDS011;58897;51.960;5.582;2024-02-15T03:08:59;13.88;;;6.45;;
12986;SDS011;58897;51.960;5.582;2024-02-15T03:11:27;10.02;;;5.65;;
12986;SDS011;58897;51.960;5.582;2024-02-15T03:13:53;14.93;;;6.03;;
12986;SDS011;58897;51.960;5.582;2024-02-15T03:16:23;9.82;;;5.38;;
12986;SDS011;58897;51.960;5.582;2024-02-15T03:18:51;10.18;;;5.55;;
12986;SDS011;58897;51.960;5.582;2024-02-15T03:21:19;13.40;;;5.53;;
12986;SDS011;58897;51.960;5.582;2024-02-15T03:23:46;12.40;;;5.95;;
12986;SDS011;58897;51.960;5.582;2024-02-15T03:26:13;11.25;;;6.00;;
12986;SDS011;58897;51.960;5.582;2024-02-15T03:28:40;11.55;;;5.35;;
12986;SDS011;58897;51.960;5.582;2024-02-15T03:31:07;13.00;;;5.30;;
12986;SDS011;58897;51.960;5.582;2024-02-15T03:33:34;11.98;;;5.75;;
12986;SDS011;58897;51.960;5.582;2024-02-15T03:36:01;16.45;;;5.10;;
12986;SDS011;58897;51.960;5.582;2024-02-15T03:38:28;10.35;;;5.35;;
12986;SDS011;58897;51.960;5.582;2024-02-15T03:40:55;10.48;;;4.95;;
12986;SDS011;58897;51.960;5.582;2024-02-15T03:43:22;10.27;;;3.85;;
12986;SDS011;58897;51.960;5.582;2024-02-15T03:45:50;10.20;;;5.03;;
12986;SDS011;58897;51.960;5.582;2024-02-15T03:48:17;7.65;;;4.55;;
12986;SDS011;58897;51.960;5.582;2024-02-15T03:50:44;8.77;;;3.78;;
12986;SDS011;58897;51.960;5.582;2024-02-15T03:53:11;8.60;;;4.40;;
12986;SDS011;58897;51.960;5.582;2024-02-15T03:55:39;10.98;;;4.25;;
12986;SDS011;58897;51.960;5.582;2024-02-15T03:58:05;11.98;;;4.85;;
12986;SDS011;58897;51.960;5.582;2024-02-15T04:00:34;7.65;;;3.97;;
12986;SDS011;58897;51.960;5.582;2024-02-15T04:03:00;10.02;;;4.18;;
12986;SDS011;58897;51.960;5.582;2024-02-15T04:05:27;8.63;;;4.78;;
12986;SDS011;58897;51.960;5.582;2024-02-15T04:07:54;9.00;;;4.30;;
12986;SDS011;58897;51.960;5.582;2024-02-15T04:10:20;9.70;;;4.47;;
12986;SDS011;58897;51.960;5.582;2024-02-15T04:12:47;8.50;;;4.38;;
12986;SDS011;58897;51.960;5.582;2024-02-15T04:15:14;8.85;;;3.88;;
12986;SDS011;58897;51.960;5.582;2024-02-15T04:17:44;8.80;;;4.28;;
12986;SDS011;58897;51.960;5.582;2024-02-15T04:20:11;11.55;;;3.70;;
12986;SDS011;58897;51.960;5.582;2024-02-15T04:22:39;9.88;;;4.18;;
12986;SDS011;58897;51.960;5.582;2024-02-15T04:25:08;15.68;;;4.40;;
12986;SDS011;58897;51.960;5.582;2024-02-15T04:27:36;8.57;;;4.40;;
12986;SDS011;58897;51.960;5.582;2024-02-15T04:30:03;12.35;;;3.67;;
12986;SDS011;58897;51.960;5.582;2024-02-15T04:32:30;7.57;;;4.55;;
12986;SDS011;58897;51.960;5.582;2024-02-15T04:35:00;10.55;;;4.97;;
12986;SDS011;58897;51.960;5.582;2024-02-15T04:37:28;9.18;;;3.83;;
12986;SDS011;58897;51.960;5.582;2024-02-15T04:39:59;9.20;;;4.05;;
12986;SDS011;58897;51.960;5.582;2024-02-15T04:42:33;10.05;;;5.32;;
12986;SDS011;58897;51.960;5.582;2024-02-15T04:45:01;5.35;;;3.17;;
12986;SDS011;58897;51.960;5.582;2024-02-15T04:47:27;7.15;;;3.15;;
12986;SDS011;58897;51.960;5.582;2024-02-15T04:49:56;9.15;;;3.08;;
12986;SDS011;58897;51.960;5.582;2024-02-15T04:52:23;9.30;;;4.50;;
12986;SDS011;58897;51.960;5.582;2024-02-15T04:54:50;5.85;;;3.80;;
12986;SDS011;58897;51.960;5.582;2024-02-15T04:57:17;12.80;;;3.85;;
12986;SDS011;58897;51.960;5.582;2024-02-15T04:59:44;11.25;;;4.00;;
12986;SDS011;58897;51.960;5.582;2024-02-15T05:02:13;10.95;;;3.78;;
12986;SDS011;58897;51.960;5.582;2024-02-15T05:04:40;7.50;;;3.35;;
12986;SDS011;58897;51.960;5.582;2024-02-15T05:07:09;5.47;;;2.97;;
12986;SDS011;58897;51.960;5.582;2024-02-15T05:09:36;12.25;;;3.53;;
12986;SDS011;58897;51.960;5.582;2024-02-15T05:12:03;7.65;;;3.97;;
12986;SDS011;58897;51.960;5.582;2024-02-15T05:14:31;5.88;;;3.70;;
12986;SDS011;58897;51.960;5.582;2024-02-15T05:16:57;7.30;;;3.28;;
12986;SDS011;58897;51.960;5.582;2024-02-15T05:19:26;8.48;;;3.80;;
12986;SDS011;58897;51.960;5.582;2024-02-15T05:21:53;5.20;;;2.85;;
12986;SDS011;58897;51.960;5.582;2024-02-15T05:24:21;9.32;;;4.00;;
12986;SDS011;58897;51.960;5.582;2024-02-15T05:26:48;6.07;;;3.03;;
12986;SDS011;58897;51.960;5.582;2024-02-15T05:29:15;7.53;;;2.90;;
12986;SDS011;58897;51.960;5.582;2024-02-15T05:31:43;7.97;;;4.00;;
12986;SDS011;58897;51.960;5.582;2024-02-15T05:34:10;6.97;;;3.97;;
12986;SDS011;58897;51.960;5.582;2024-02-15T05:36:40;7.35;;;3.17;;
12986;SDS011;58897;51.960;5.582;2024-02-15T05:39:07;5.20;;;3.15;;
12986;SDS011;58897;51.960;5.582;2024-02-15T05:41:34;5.50;;;2.88;;
12986;SDS011;58897;51.960;5.582;2024-02-15T05:44:01;6.30;;;3.20;;
12986;SDS011;58897;51.960;5.582;2024-02-15T05:46:30;4.85;;;3.00;;
12986;SDS011;58897;51.960;5.582;2024-02-15T05:48:57;6.63;;;3.80;;
12986;SDS011;58897;51.960;5.582;2024-02-15T05:51:24;4.53;;;2.63;;
12986;SDS011;58897;51.960;5.582;2024-02-15T05:53:50;6.53;;;2.78;;
12986;SDS011;58897;51.960;5.582;2024-02-15T05:56:19;7.75;;;3.55;;
12986;SDS011;58897;51.960;5.582;2024-02-15T05:58:46;8.40;;;3.35;;
12986;SDS011;58897;51.960;5.582;2024-02-15T06:01:13;6.88;;;2.97;;
12986;SDS011;58897;51.960;5.582;2024-02-15T06:03:40;7.07;;;2.95;;
12986;SDS011;58897;51.960;5.582;2024-02-15T06:06:10;7.90;;;3.63;;
12986;SDS011;58897;51.960;5.582;2024-02-15T06:08:38;4.45;;;3.10;;
12986;SDS011;58897;51.960;5.582;2024-02-15T06:11:04;11.50;;;4.45;;
12986;SDS011;58897;51.960;5.582;2024-02-15T06:13:31;5.90;;;3.30;;
12986;SDS011;58897;51.960;5.582;2024-02-15T06:15:58;8.13;;;3.20;;
12986;SDS011;58897;51.960;5.582;2024-02-15T06:18:25;11.18;;;3.60;;
12986;SDS011;58897;51.960;5.582;2024-02-15T06:20:59;9.75;;;4.60;;
12986;SDS011;58897;51.960;5.582;2024-02-15T06:23:26;5.45;;;3.63;;
12986;SDS011;58897;51.960;5.582;2024-02-15T06:25:55;5.00;;;3.05;;
12986;SDS011;58897;51.960;5.582;2024-02-15T06:28:24;5.88;;;3.17;;
12986;SDS011;58897;51.960;5.582;2024-02-15T06:31:10;7.38;;;3.38;;
12986;SDS011;58897;51.960;5.582;2024-02-15T06:33:56;5.38;;;2.45;;
12986;SDS011;58897;51.960;5.582;2024-02-15T06:36:46;7.90;;;4.03;;
12986;SDS011;58897;51.960;5.582;2024-02-15T06:39:35;6.20;;;2.97;;
12986;SDS011;58897;51.960;5.582;2024-02-15T06:42:14;7.72;;;3.65;;
12986;SDS011;58897;51.960;5.582;2024-02-15T06:44:46;11.23;;;3.65;;
12986;SDS011;58897;51.960;5.582;2024-02-15T06:47:15;9.23;;;4.00;;
12986;SDS011;58897;51.960;5.582;2024-02-15T06:49:45;5.70;;;3.63;;
12986;SDS011;58897;51.960;5.582;2024-02-15T06:52:12;9.05;;;3.60;;
12986;SDS011;58897;51.960;5.582;2024-02-15T06:54:40;9.20;;;3.92;;
12986;SDS011;58897;51.960;5.582;2024-02-15T06:57:08;8.77;;;3.78;;
12986;SDS011;58897;51.960;5.582;2024-02-15T06:59:35;8.00;;;4.35;;
12986;SDS011;58897;51.960;5.582;2024-02-15T07:02:03;5.82;;;3.60;;
12986;SDS011;58897;51.960;5.582;2024-02-15T07:04:34;6.00;;;3.28;;
12986;SDS011;58897;51.960;5.582;2024-02-15T07:07:01;5.68;;;2.95;;
12986;SDS011;58897;51.960;5.582;2024-02-15T07:09:29;7.43;;;3.38;;
12986;SDS011;58897;51.960;5.582;2024-02-15T07:11:56;5.05;;;3.08;;
12986;SDS011;58897;51.960;5.582;2024-02-15T07:14:24;11.13;;;3.80;;
12986;SDS011;58897;51.960;5.582;2024-02-15T07:16:51;5.22;;;3.08;;
12986;SDS011;58897;51.960;5.582;2024-02-15T07:19:18;9.50;;;3.15;;
12986;SDS011;58897;51.960;5.582;2024-02-15T07:21:45;6.25;;;3.30;;
12986;SDS011;58897;51.960;5.582;2024-02-15T07:24:13;7.43;;;3.35;;
12986;SDS011;58897;51.960;5.582;2024-02-15T07:26:40;6.20;;;3.10;;
12986;SDS011;58897;51.960;5.582;2024-02-15T07:29:07;5.78;;;3.00;;
12986;SDS011;58897;51.960;5.582;2024-02-15T07:31:34;5.45;;;3.03;;
12986;SDS011;58897;51.960;5.582;2024-02-15T07:34:02;5.07;;;2.90;;
12986;SDS011;58897;51.960;5.582;2024-02-15T07:36:30;6.82;;;3.60;;
12986;SDS011;58897;51.960;5.582;2024-02-15T07:38:56;4.53;;;2.50;;
12986;SDS011;58897;51.960;5.582;2024-02-15T07:41:27;4.93;;;3.45;;
12986;SDS011;58897;51.960;5.582;2024-02-15T07:43:54;6.35;;;3.05;;
12986;SDS011;58897;51.960;5.582;2024-02-15T07:46:21;7.93;;;2.88;;
12986;SDS011;58897;51.960;5.582;2024-02-15T07:48:50;7.00;;;2.90;;
12986;SDS011;58897;51.960;5.582;2024-02-15T07:51:18;6.43;;;3.38;;
12986;SDS011;58897;51.960;5.582;2024-02-15T07:53:46;5.55;;;2.60;;
12986;SDS011;58897;51.960;5.582;2024-02-15T07:56:14;7.75;;;3.65;;
12986;SDS011;58897;51.960;5.582;2024-02-15T07:58:42;6.85;;;2.72;;
12986;SDS011;58897;51.960;5.582;2024-02-15T08:01:18;6.85;;;3.03;;
12986;SDS011;58897;51.960;5.582;2024-02-15T08:03:50;5.07;;;3.03;;
12986;SDS011;58897;51.960;5.582;2024-02-15T08:06:17;6.00;;;3.03;;
12986;SDS011;58897;51.960;5.582;2024-02-15T08:08:45;5.13;;;2.58;;
12986;SDS011;58897;51.960;5.582;2024-02-15T08:11:13;6.97;;;3.13;;
12986;SDS011;58897;51.960;5.582;2024-02-15T08:16:14;6.93;;;3.50;;
12986;SDS011;58897;51.960;5.582;2024-02-15T08:18:45;8.45;;;2.97;;
12986;SDS011;58897;51.960;5.582;2024-02-15T08:21:13;11.48;;;5.35;;
12986;SDS011;58897;51.960;5.582;2024-02-15T08:23:40;5.90;;;3.03;;
12986;SDS011;58897;51.960;5.582;2024-02-15T08:26:07;6.90;;;3.13;;
12986;SDS011;58897;51.960;5.582;2024-02-15T08:28:33;6.00;;;2.72;;
12986;SDS011;58897;51.960;5.582;2024-02-15T08:31:00;5.32;;;2.83;;
12986;SDS011;58897;51.960;5.582;2024-02-15T08:33:27;7.15;;;3.72;;
12986;SDS011;58897;51.960;5.582;2024-02-15T08:35:55;7.05;;;2.65;;
12986;SDS011;58897;51.960;5.582;2024-02-15T08:38:22;4.45;;;2.58;;
12986;SDS011;58897;51.960;5.582;2024-02-15T08:40:49;6.00;;;2.85;;
12986;SDS011;58897;51.960;5.582;2024-02-15T08:43:16;4.18;;;2.60;;
12986;SDS011;58897;51.960;5.582;2024-02-15T08:45:43;4.15;;;2.30;;
12986;SDS011;58897;51.960;5.582;2024-02-15T08:48:10;5.40;;;3.35;;
12986;SDS011;58897;51.960;5.582;2024-02-15T08:50:38;5.32;;;2.75;;
12986;SDS011;58897;51.960;5.582;2024-02-15T08:53:05;6.38;;;2.60;;
12986;SDS011;58897;51.960;5.582;2024-02-15T08:55:34;4.57;;;2.60;;
12986;SDS011;58897;51.960;5.582;2024-02-15T08:58:02;5.55;;;2.78;;
12986;SDS011;58897;51.960;5.582;2024-02-15T09:00:30;4.72;;;2.50;;
12986;SDS011;58897;51.960;5.582;2024-02-15T09:02:57;6.15;;;3.03;;
12986;SDS011;58897;51.960;5.582;2024-02-15T09:05:24;5.32;;;2.85;;
12986;SDS011;58897;51.960;5.582;2024-02-15T09:07:51;7.50;;;3.70;;
12986;SDS011;58897;51.960;5.582;2024-02-15T09:10:18;8.65;;;3.92;;
12986;SDS011;58897;51.960;5.582;2024-02-15T09:12:45;5.35;;;2.88;;
12986;SDS011;58897;51.960;5.582;2024-02-15T09:15:15;5.45;;;2.92;;
12986;SDS011;58897;51.960;5.582;2024-02-15T09:17:43;8.23;;;3.33;;
12986;SDS011;58897;51.960;5.582;2024-02-15T09:20:16;7.45;;;3.13;;
12986;SDS011;58897;51.960;5.582;2024-02-15T09:22:50;4.28;;;2.65;;
12986;SDS011;58897;51.960;5.582;2024-02-15T09:25:18;6.20;;;2.88;;
12986;SDS011;58897;51.960;5.582;2024-02-15T09:27:45;4.13;;;2.13;;
12986;SDS011;58897;51.960;5.582;2024-02-15T09:30:14;6.97;;;3.33;;
12986;SDS011;58897;51.960;5.582;2024-02-15T09:32:42;6.68;;;3.42;;
12986;SDS011;58897;51.960;5.582;2024-02-15T09:35:10;5.18;;;2.92;;
12986;SDS011;58897;51.960;5.582;2024-02-15T09:37:42;5.00;;;2.70;;
12986;SDS011;58897;51.960;5.582;2024-02-15T09:40:10;8.50;;;3.53;;
12986;SDS011;58897;51.960;5.582;2024-02-15T09:42:38;10.05;;;3.78;;
12986;SDS011;58897;51.960;5.582;2024-02-15T09:45:06;3.83;;;2.40;;
12986;SDS011;58897;51.960;5.582;2024-02-15T09:47:37;6.57;;;2.45;;
12986;SDS011;58897;51.960;5.582;2024-02-15T09:50:10;7.90;;;3.55;;
12986;SDS011;58897;51.960;5.582;2024-02-15T09:52:44;11.43;;;3.53;;
12986;SDS011;58897;51.960;5.582;2024-02-15T09:55:16;5.18;;;2.90;;
12986;SDS011;58897;51.960;5.582;2024-02-15T09:57:44;6.53;;;3.53;;
12986;SDS011;58897;51.960;5.582;2024-02-15T10:00:18;5.82;;;2.63;;
12986;SDS011;58897;51.960;5.582;2024-02-15T10:02:49;5.53;;;2.80;;
12986;SDS011;58897;51.960;5.582;2024-02-15T10:05:17;6.28;;;3.45;;
12986;SDS011;58897;51.960;5.582;2024-02-15T10:07:45;6.43;;;3.58;;
12986;SDS011;58897;51.960;5.582;2024-02-15T10:10:16;4.47;;;2.88;;
12986;SDS011;58897;51.960;5.582;2024-02-15T10:12:48;7.18;;;3.08;;
12986;SDS011;58897;51.960;5.582;2024-02-15T10:15:27;4.18;;;2.83;;
12986;SDS011;58897;51.960;5.582;2024-02-15T10:17:58;6.03;;;3.00;;
12986;SDS011;58897;51.960;5.582;2024-02-15T10:20:26;6.30;;;3.08;;
12986;SDS011;58897;51.960;5.582;2024-02-15T10:22:58;6.18;;;2.97;;
12986;SDS011;58897;51.960;5.582;2024-02-15T10:25:36;4.22;;;2.42;;
12986;SDS011;58897;51.960;5.582;2024-02-15T10:28:10;10.65;;;4.13;;
12986;SDS011;58897;51.960;5.582;2024-02-15T10:30:42;8.32;;;2.92;;
12986;SDS011;58897;51.960;5.582;2024-02-15T10:33:18;3.55;;;2.30;;
12986;SDS011;58897;51.960;5.582;2024-02-15T10:35:48;4.70;;;2.75;;
12986;SDS011;58897;51.960;5.582;2024-02-15T10:38:15;6.68;;;2.72;;
12986;SDS011;58897;51.960;5.582;2024-02-15T10:40:45;5.78;;;3.17;;
12986;SDS011;58897;51.960;5.582;2024-02-15T10:43:13;6.65;;;3.22;;
12986;SDS011;58897;51.960;5.582;2024-02-15T10:45:42;5.63;;;2.70;;
12986;SDS011;58897;51.960;5.582;2024-02-15T10:48:11;4.38;;;2.33;;
12986;SDS011;58897;51.960;5.582;2024-02-15T10:50:40;4.30;;;2.50;;
12986;SDS011;58897;51.960;5.582;2024-02-15T10:53:14;5.63;;;3.20;;
12986;SDS011;58897;51.960;5.582;2024-02-15T10:55:53;8.15;;;3.60;;
12986;SDS011;58897;51.960;5.582;2024-02-15T10:58:23;8.13;;;3.58;;
12986;SDS011;58897;51.960;5.582;2024-02-15T11:00:57;5.15;;;2.65;;
12986;SDS011;58897;51.960;5.582;2024-02-15T11:03:28;6.53;;;3.50;;
12986;SDS011;58897;51.960;5.582;2024-02-15T11:06:04;4.55;;;2.70;;
12986;SDS011;58897;51.960;5.582;2024-02-15T11:08:34;6.03;;;2.88;;
12986;SDS011;58897;51.960;5.582;2024-02-15T11:11:01;9.52;;;4.10;;
12986;SDS011;58897;51.960;5.582;2024-02-15T11:13:31;7.85;;;3.17;;
12986;SDS011;58897;51.960;5.582;2024-02-15T11:15:57;4.82;;;2.88;;
12986;SDS011;58897;51.960;5.582;2024-02-15T11:18:41;6.93;;;3.67;;
12986;SDS011;58897;51.960;5.582;2024-02-15T11:21:08;6.18;;;3.35;;
12986;SDS011;58897;51.960;5.582;2024-02-15T11:23:34;12.20;;;4.47;;
12986;SDS011;58897;51.960;5.582;2024-02-15T11:26:03;7.55;;;3.70;;
12986;SDS011;58897;51.960;5.582;2024-02-15T11:28:35;7.78;;;3.30;;
12986;SDS011;58897;51.960;5.582;2024-02-15T11:31:03;6.22;;;3.22;;
12986;SDS011;58897;51.960;5.582;2024-02-15T11:33:30;8.77;;;4.32;;
12986;SDS011;58897;51.960;5.582;2024-02-15T11:36:08;8.32;;;4.43;;
12986;SDS011;58897;51.960;5.582;2024-02-15T11:38:37;7.35;;;3.85;;
12986;SDS011;58897;51.960;5.582;2024-02-15T11:41:10;6.10;;;3.28;;
12986;SDS011;58897;51.960;5.582;2024-02-15T11:46:16;5.72;;;2.85;;
12986;SDS011;58897;51.960;5.582;2024-02-15T11:48:46;6.20;;;3.08;;
12986;SDS011;58897;51.960;5.582;2024-02-15T11:54:07;8.93;;;3.58;;
12986;SDS011;58897;51.960;5.582;2024-02-15T11:59:15;8.65;;;4.53;;
12986;SDS011;58897;51.960;5.582;2024-02-15T12:01:58;7.07;;;3.30;;
12986;SDS011;58897;51.960;5.582;2024-02-15T12:04:43;9.38;;;4.20;;
12986;SDS011;58897;51.960;5.582;2024-02-15T12:07:28;7.15;;;3.83;;
12986;SDS011;58897;51.960;5.582;2024-02-15T12:10:17;9.27;;;4.28;;
12986;SDS011;58897;51.960;5.582;2024-02-15T12:13:04;8.77;;;3.83;;
12986;SDS011;58897;51.960;5.582;2024-02-15T12:15:57;7.78;;;3.88;;
12986;SDS011;58897;51.960;5.582;2024-02-15T12:18:43;8.38;;;4.00;;
12986;SDS011;58897;51.960;5.582;2024-02-15T12:21:12;6.30;;;3.00;;
12986;SDS011;58897;51.960;5.582;2024-02-15T12:23:45;7.25;;;3.85;;
12986;SDS011;58897;51.960;5.582;2024-02-15T12:26:12;9.80;;;3.90;;
12986;SDS011;58897;51.960;5.582;2024-02-15T12:28:41;12.55;;;3.63;;
12986;SDS011;58897;51.960;5.582;2024-02-15T12:31:13;6.25;;;3.65;;
12986;SDS011;58897;51.960;5.582;2024-02-15T12:33:40;8.48;;;3.75;;
12986;SDS011;58897;51.960;5.582;2024-02-15T12:36:07;7.43;;;3.30;;
12986;SDS011;58897;51.960;5.582;2024-02-15T12:38:35;6.88;;;2.75;;
12986;SDS011;58897;51.960;5.582;2024-02-15T12:41:05;6.20;;;3.30;;
12986;SDS011;58897;51.960;5.582;2024-02-15T12:43:45;7.30;;;3.65;;
12986;SDS011;58897;51.960;5.582;2024-02-15T12:46:11;7.25;;;3.80;;
12986;SDS011;58897;51.960;5.582;2024-02-15T12:48:38;6.07;;;3.42;;
12986;SDS011;58897;51.960;5.582;2024-02-15T12:51:14;7.47;;;3.33;;
12986;SDS011;58897;51.960;5.582;2024-02-15T12:53:41;9.55;;;3.58;;
12986;SDS011;58897;51.960;5.582;2024-02-15T12:56:08;4.30;;;2.75;;
12986;SDS011;58897;51.960;5.582;2024-02-15T12:58:35;8.88;;;3.90;;
12986;SDS011;58897;51.960;5.582;2024-02-15T13:01:02;4.15;;;2.47;;
12986;SDS011;58897;51.960;5.582;2024-02-15T13:03:30;7.05;;;2.95;;
12986;SDS011;58897;51.960;5.582;2024-02-15T13:05:57;5.97;;;3.03;;
12986;SDS011;58897;51.960;5.582;2024-02-15T13:08:24;5.15;;;2.47;;
12986;SDS011;58897;51.960;5.582;2024-02-15T13:10:50;9.15;;;3.15;;
12986;SDS011;58897;51.960;5.582;2024-02-15T13:13:17;5.18;;;2.85;;
12986;SDS011;58897;51.960;5.582;2024-02-15T13:15:44;6.95;;;3.47;;
12986;SDS011;58897;51.960;5.582;2024-02-15T13:18:13;7.28;;;3.50;;
12986;SDS011;58897;51.960;5.582;2024-02-15T13:20:41;7.47;;;3.40;;
12986;SDS011;58897;51.960;5.582;2024-02-15T13:23:08;9.48;;;4.00;;
12986;SDS011;58897;51.960;5.582;2024-02-15T13:25:38;6.10;;;3.42;;
12986;SDS011;58897;51.960;5.582;2024-02-15T13:28:11;6.40;;;3.72;;
12986;SDS011;58897;51.960;5.582;2024-02-15T13:30:39;5.45;;;2.95;;
12986;SDS011;58897;51.960;5.582;2024-02-15T13:33:07;7.95;;;3.45;;
12986;SDS011;58897;51.960;5.582;2024-02-15T13:35:34;6.63;;;3.67;;
12986;SDS011;58897;51.960;5.582;2024-02-15T13:38:00;6.10;;;2.97;;
12986;SDS011;58897;51.960;5.582;2024-02-15T13:40:28;9.98;;;3.72;;
12986;SDS011;58897;51.960;5.582;2024-02-15T13:42:59;8.80;;;4.15;;
12986;SDS011;58897;51.960;5.582;2024-02-15T13:45:31;7.45;;;3.97;;
12986;SDS011;58897;51.960;5.582;2024-02-15T13:48:00;6.13;;;3.30;;
12986;SDS011;58897;51.960;5.582;2024-02-15T13:50:31;9.40;;;3.83;;
12986;SDS011;58897;51.960;5.582;2024-02-15T13:52:59;8.10;;;3.90;;
12986;SDS011;58897;51.960;5.582;2024-02-15T13:55:26;6.97;;;4.07;;
12986;SDS011;58897;51.960;5.582;2024-02-15T13:57:53;9.77;;;3.45;;
12986;SDS011;58897;51.960;5.582;2024-02-15T14:00:24;11.10;;;3.72;;
12986;SDS011;58897;51.960;5.582;2024-02-15T14:03:01;6.57;;;4.25;;
12986;SDS011;58897;51.960;5.582;2024-02-15T14:05:29;13.73;;;4.53;;
12986;SDS011;58897;51.960;5.582;2024-02-15T14:08:01;8.70;;;4.43;;
12986;SDS011;58897;51.960;5.582;2024-02-15T14:10:31;7.25;;;3.28;;
12986;SDS011;58897;51.960;5.582;2024-02-15T14:12:59;4.07;;;2.83;;
12986;SDS011;58897;51.960;5.582;2024-02-15T14:15:29;5.78;;;3.42;;
12986;SDS011;58897;51.960;5.582;2024-02-15T14:17:55;9.80;;;3.83;;
12986;SDS011;58897;51.960;5.582;2024-02-15T14:20:22;6.88;;;2.95;;
12986;SDS011;58897;51.960;5.582;2024-02-15T14:22:50;9.30;;;3.60;;
12986;SDS011;58897;51.960;5.582;2024-02-15T14:25:25;6.57;;;3.15;;
12986;SDS011;58897;51.960;5.582;2024-02-15T14:27:55;6.35;;;3.70;;
12986;SDS011;58897;51.960;5.582;2024-02-15T14:30:23;6.20;;;2.83;;
12986;SDS011;58897;51.960;5.582;2024-02-15T14:33:09;5.97;;;3.03;;
12986;SDS011;58897;51.960;5.582;2024-02-15T14:38:15;7.63;;;3.17;;
12986;SDS011;58897;51.960;5.582;2024-02-15T14:40:43;7.03;;;3.33;;
12986;SDS011;58897;51.960;5.582;2024-02-15T14:43:20;6.20;;;2.67;;
12986;SDS011;58897;51.960;5.582;2024-02-15T14:45:48;6.47;;;3.05;;
12986;SDS011;58897;51.960;5.582;2024-02-15T14:48:15;6.53;;;3.35;;
12986;SDS011;58897;51.960;5.582;2024-02-15T14:50:44;5.60;;;3.17;;
12986;SDS011;58897;51.960;5.582;2024-02-15T14:53:11;6.18;;;2.75;;
12986;SDS011;58897;51.960;5.582;2024-02-15T14:55:39;7.03;;;3.17;;
12986;SDS011;58897;51.960;5.582;2024-02-15T14:58:06;5.57;;;3.03;;
12986;SDS011;58897;51.960;5.582;2024-02-15T15:00:39;5.47;;;2.92;;
12986;SDS011;58897;51.960;5.582;2024-02-15T15:03:08;5.75;;;3.00;;
12986;SDS011;58897;51.960;5.582;2024-02-15T15:05:35;7.32;;;3.20;;
12986;SDS011;58897;51.960;5.582;2024-02-15T15:08:21;5.13;;;2.90;;
12986;SDS011;58897;51.960;5.582;2024-02-15T15:11:06;5.00;;;2.63;;